sensor_id;sensor_type;location;lat;lon;timestamp;pressure;altitude;pressure_sealevel;temperature;humidity
59274;BME280;45044;41.572;24.730;2023-03-14T00:00:09;91502.81;;;-1.97;100.00
59274;BME280;45044;41.572;24.730;2023-03-14T00:02:37;91505.47;;;-1.88;100.00
59274;BME280;45044;41.572;24.730;2023-03-14T00:05:06;91500.47;;;-1.85;100.00
59274;BME280;45044;41.572;24.730;2023-03-14T00:07:37;91509.28;;;-1.86;100.00
59274;BME280;45044;41.572;24.730;2023-03-14T00:10:07;91505.59;;;-2.08;100.00
59274;BME280;45044;41.572;24.730;2023-03-14T00:12:34;91496.53;;;-2.05;100.00
59274;BME280;45044;41.572;24.730;2023-03-14T00:15:02;91490.69;;;-2.11;100.00
59274;BME280;45044;41.572;24.730;2023-03-14T00:17:35;91487.09;;;-2.10;100.00
59274;BME280;45044;41.572;24.730;2023-03-14T00:20:06;91489.88;;;-2.20;100.00
59274;BME280;45044;41.572;24.730;2023-03-14T00:22:38;91494.81;;;-2.10;100.00
59274;BME280;45044;41.572;24.730;2023-03-14T00:25:07;91502.34;;;-1.99;100.00
59274;BME280;45044;41.572;24.730;2023-03-14T00:27:35;91498.59;;;-2.44;100.00
59274;BME280;45044;41.572;24.730;2023-03-14T00:30:03;91492.84;;;-2.41;100.00
59274;BME280;45044;41.572;24.730;2023-03-14T00:32:30;91489.25;;;-2.40;100.00
59274;BME280;45044;41.572;24.730;2023-03-14T00:34:57;91474.63;;;-2.31;100.00
59274;BME280;45044;41.572;24.730;2023-03-14T00:37:23;91468.63;;;-2.26;100.00
59274;BME280;45044;41.572;24.730;2023-03-14T00:39:51;91477.41;;;-2.41;100.00
59274;BME280;45044;41.572;24.730;2023-03-14T00:42:18;91480.25;;;-2.29;100.00
59274;BME280;45044;41.572;24.730;2023-03-14T00:44:45;91468.63;;;-2.26;100.00
59274;BME280;45044;41.572;24.730;2023-03-14T00:47:11;91472.03;;;-2.31;100.00
59274;BME280;45044;41.572;24.730;2023-03-14T00:49:38;91467.06;;;-2.27;100.00
59274;BME280;45044;41.572;24.730;2023-03-14T00:52:05;91466.88;;;-2.31;100.00
59274;BME280;45044;41.572;24.730;2023-03-14T00:54:32;91473.50;;;-2.53;100.00
59274;BME280;45044;41.572;24.730;2023-03-14T00:56:59;91474.94;;;-2.46;100.00
59274;BME280;45044;41.572;24.730;2023-03-14T00:59:25;91464.03;;;-2.43;100.00
59274;BME280;45044;41.572;24.730;2023-03-14T01:01:52;91465.38;;;-2.32;100.00
59274;BME280;45044;41.572;24.730;2023-03-14T01:04:19;91464.06;;;-2.29;100.00
59274;BME280;45044;41.572;24.730;2023-03-14T01:06:46;91459.53;;;-2.23;100.00
59274;BME280;45044;41.572;24.730;2023-03-14T01:09:13;91447.41;;;-2.23;100.00
59274;BME280;45044;41.572;24.730;2023-03-14T01:11:39;91446.28;;;-2.31;100.00
59274;BME280;45044;41.572;24.730;2023-03-14T01:14:06;91434.59;;;-2.51;100.00
59274;BME280;45044;41.572;24.730;2023-03-14T01:16:34;91435.47;;;-2.56;100.00
59274;BME280;45044;41.572;24.730;2023-03-14T01:19:02;91439.75;;;-2.65;100.00
59274;BME280;45044;41.572;24.730;2023-03-14T01:21:34;91439.66;;;-2.60;100.00
59274;BME280;45044;41.572;24.730;2023-03-14T01:24:03;91434.91;;;-2.81;100.00
59274;BME280;45044;41.572;24.730;2023-03-14T01:26:32;91435.66;;;-2.66;100.00
59274;BME280;45044;41.572;24.730;2023-03-14T01:29:00;91438.13;;;-2.61;100.00
59274;BME280;45044;41.572;24.730;2023-03-14T01:31:27;91428.78;;;-2.57;100.00
59274;BME280;45044;41.572;24.730;2023-03-14T01:33:54;91427.44;;;-2.54;100.00
59274;BME280;45044;41.572;24.730;2023-03-14T01:36:21;91422.41;;;-2.59;100.00
59274;BME280;45044;41.572;24.730;2023-03-14T01:38:47;91425.84;;;-2.64;100.00
59274;BME280;45044;41.572;24.730;2023-03-14T01:41:18;91421.19;;;-2.62;100.00
59274;BME280;45044;41.572;24.730;2023-03-14T01:43:46;91423.66;;;-2.57;100.00
59274;BME280;45044;41.572;24.730;2023-03-14T01:46:36;91413.56;;;-2.67;100.00
59274;BME280;45044;41.572;24.730;2023-03-14T01:51:56;91410.13;;;-2.77;100.00
59274;BME280;45044;41.572;24.730;2023-03-14T01:54:34;91401.34;;;-2.75;100.00
59274;BME280;45044;41.572;24.730;2023-03-14T01:57:22;91408.78;;;-2.88;100.00
59274;BME280;45044;41.572;24.730;2023-03-14T01:59:54;91407.16;;;-2.98;100.00
59274;BME280;45044;41.572;24.730;2023-03-14T02:02:24;91406.81;;;-2.91;100.00
59274;BME280;45044;41.572;24.730;2023-03-14T02:04:54;91407.34;;;-2.94;100.00
59274;BME280;45044;41.572;24.730;2023-03-14T02:07:32;91404.78;;;-2.94;100.00
59274;BME280;45044;41.572;24.730;2023-03-14T02:10:02;91402.50;;;-2.82;100.00
59274;BME280;45044;41.572;24.730;2023-03-14T02:12:30;91399.94;;;-2.82;100.00
59274;BME280;45044;41.572;24.730;2023-03-14T02:14:56;91406.13;;;-2.83;100.00
59274;BME280;45044;41.572;24.730;2023-03-14T02:17:25;91403.47;;;-2.92;100.00
59274;BME280;45044;41.572;24.730;2023-03-14T02:22:45;91398.41;;;-2.83;100.00
59274;BME280;45044;41.572;24.730;2023-03-14T02:28:04;91387.63;;;-2.85;100.00
59274;BME280;45044;41.572;24.730;2023-03-14T02:30:31;91394.09;;;-3.02;100.00
59274;BME280;45044;41.572;24.730;2023-03-14T02:33:08;91389.53;;;-3.05;100.00
59274;BME280;45044;41.572;24.730;2023-03-14T02:35:40;91391.63;;;-3.07;100.00
59274;BME280;45044;41.572;24.730;2023-03-14T02:38:20;91385.75;;;-3.07;100.00
59274;BME280;45044;41.572;24.730;2023-03-14T02:40:50;91393.19;;;-3.06;100.00
59274;BME280;45044;41.572;24.730;2023-03-14T02:43:17;91386.50;;;-3.07;100.00
59274;BME280;45044;41.572;24.730;2023-03-14T02:45:46;91380.59;;;-2.93;100.00
59274;BME280;45044;41.572;24.730;2023-03-14T02:48:19;91386.22;;;-2.91;100.00
59274;BME280;45044;41.572;24.730;2023-03-14T02:50:48;91375.63;;;-2.90;100.00
59274;BME280;45044;41.572;24.730;2023-03-14T02:53:19;91373.72;;;-2.98;100.00
59274;BME280;45044;41.572;24.730;2023-03-14T02:55:48;91376.97;;;-2.92;100.00
59274;BME280;45044;41.572;24.730;2023-03-14T02:58:15;91380.59;;;-2.93;100.00
59274;BME280;45044;41.572;24.730;2023-03-14T03:00:42;91379.72;;;-3.03;100.00
59274;BME280;45044;41.572;24.730;2023-03-14T03:03:09;91382.22;;;-3.11;100.00
59274;BME280;45044;41.572;24.730;2023-03-14T03:05:36;91379.94;;;-3.13;100.00
59274;BME280;45044;41.572;24.730;2023-03-14T03:08:03;91382.69;;;-3.09;100.00
59274;BME280;45044;41.572;24.730;2023-03-14T03:10:30;91381.16;;;-3.10;100.00
59274;BME280;45044;41.572;24.730;2023-03-14T03:12:57;91390.13;;;-3.08;100.00
59274;BME280;45044;41.572;24.730;2023-03-14T03:15:24;91377.16;;;-3.31;100.00
59274;BME280;45044;41.572;24.730;2023-03-14T03:17:51;91373.34;;;-3.33;100.00
59274;BME280;45044;41.572;24.730;2023-03-14T03:20:18;91380.59;;;-3.21;100.00
59274;BME280;45044;41.572;24.730;2023-03-14T03:22:44;91383.72;;;-3.10;100.00
59274;BME280;45044;41.572;24.730;2023-03-14T03:25:11;91386.31;;;-3.10;100.00
59274;BME280;45044;41.572;24.730;2023-03-14T03:27:38;91380.97;;;-3.14;100.00
59274;BME280;45044;41.572;24.730;2023-03-14T03:30:06;91386.88;;;-3.14;100.00
59274;BME280;45044;41.572;24.730;2023-03-14T03:32:33;91378.97;;;-3.17;100.00
59274;BME280;45044;41.572;24.730;2023-03-14T03:35:04;91370.09;;;-3.25;100.00
59274;BME280;45044;41.572;24.730;2023-03-14T03:37:32;91378.78;;;-3.21;100.00
59274;BME280;45044;41.572;24.730;2023-03-14T03:39:59;91375.91;;;-3.19;100.00
59274;BME280;45044;41.572;24.730;2023-03-14T03:42:27;91381.44;;;-3.26;100.00
59274;BME280;45044;41.572;24.730;2023-03-14T03:44:55;91374.50;;;-3.26;100.00
59274;BME280;45044;41.572;24.730;2023-03-14T03:47:22;91369.41;;;-3.59;100.00
59274;BME280;45044;41.572;24.730;2023-03-14T03:49:49;91388.38;;;-3.41;100.00
59274;BME280;45044;41.572;24.730;2023-03-14T03:52:16;91382.13;;;-3.34;100.00
59274;BME280;45044;41.572;24.730;2023-03-14T03:54:44;91386.97;;;-3.33;100.00
59274;BME280;45044;41.572;24.730;2023-03-14T03:57:11;91373.88;;;-3.51;100.00
59274;BME280;45044;41.572;24.730;2023-03-14T03:59:38;91391.25;;;-3.42;100.00
59274;BME280;45044;41.572;24.730;2023-03-14T04:02:07;91396.00;;;-3.50;100.00
59274;BME280;45044;41.572;24.730;2023-03-14T04:04:34;91392.94;;;-3.38;100.00
59274;BME280;45044;41.572;24.730;2023-03-14T04:07:01;91399.44;;;-3.40;100.00
59274;BME280;45044;41.572;24.730;2023-03-14T04:09:28;91396.00;;;-3.35;100.00
59274;BME280;45044;41.572;24.730;2023-03-14T04:11:54;91400.13;;;-3.34;100.00
59274;BME280;45044;41.572;24.730;2023-03-14T04:14:22;91407.31;;;-3.51;100.00
59274;BME280;45044;41.572;24.730;2023-03-14T04:16:49;91402.84;;;-3.45;100.00
59274;BME280;45044;41.572;24.730;2023-03-14T04:19:16;91404.72;;;-3.51;100.00
59274;BME280;45044;41.572;24.730;2023-03-14T04:21:42;91400.56;;;-3.46;100.00
59274;BME280;45044;41.572;24.730;2023-03-14T04:24:11;91398.09;;;-3.52;100.00
59274;BME280;45044;41.572;24.730;2023-03-14T04:26:38;91395.91;;;-3.44;100.00
59274;BME280;45044;41.572;24.730;2023-03-14T04:29:04;91398.38;;;-3.39;100.00
59274;BME280;45044;41.572;24.730;2023-03-14T04:31:31;91400.00;;;-3.43;100.00
59274;BME280;45044;41.572;24.730;2023-03-14T04:33:58;91397.41;;;-3.43;100.00
59274;BME280;45044;41.572;24.730;2023-03-14T04:36:25;91397.31;;;-3.52;100.00
59274;BME280;45044;41.572;24.730;2023-03-14T04:38:53;91400.38;;;-3.50;100.00
59274;BME280;45044;41.572;24.730;2023-03-14T04:41:19;91400.25;;;-3.59;100.00
59274;BME280;45044;41.572;24.730;2023-03-14T04:43:46;91397.03;;;-3.51;100.00
59274;BME280;45044;41.572;24.730;2023-03-14T04:46:13;91397.59;;;-3.54;100.00
59274;BME280;45044;41.572;24.730;2023-03-14T04:48:39;91402.28;;;-3.42;100.00
59274;BME280;45044;41.572;24.730;2023-03-14T04:51:07;91398.47;;;-3.44;100.00
59274;BME280;45044;41.572;24.730;2023-03-14T04:53:34;91395.03;;;-3.54;100.00
59274;BME280;45044;41.572;24.730;2023-03-14T04:56:02;91396.72;;;-3.63;100.00
59274;BME280;45044;41.572;24.730;2023-03-14T04:58:29;91392.75;;;-3.55;100.00
59274;BME280;45044;41.572;24.730;2023-03-14T05:01:01;91395.59;;;-3.57;100.00
59274;BME280;45044;41.572;24.730;2023-03-14T05:03:28;91400.00;;;-3.43;100.00
59274;BME280;45044;41.572;24.730;2023-03-14T05:05:55;91400.75;;;-3.29;100.00
59274;BME280;45044;41.572;24.730;2023-03-14T05:08:23;91398.88;;;-3.37;100.00
59274;BME280;45044;41.572;24.730;2023-03-14T05:10:54;91401.53;;;-3.14;100.00
59274;BME280;45044;41.572;24.730;2023-03-14T05:13:21;91404.59;;;-3.12;100.00
59274;BME280;45044;41.572;24.730;2023-03-14T05:15:48;91408.03;;;-3.03;100.00
59274;BME280;45044;41.572;24.730;2023-03-14T05:18:15;91409.94;;;-2.94;100.00
59274;BME280;45044;41.572;24.730;2023-03-14T05:20:42;91395.34;;;-2.85;100.00
59274;BME280;45044;41.572;24.730;2023-03-14T05:23:11;91395.16;;;-2.74;100.00
59274;BME280;45044;41.572;24.730;2023-03-14T05:25:38;91397.31;;;-2.54;100.00
59274;BME280;45044;41.572;24.730;2023-03-14T05:28:04;91397.47;;;-2.36;100.00
59274;BME280;45044;41.572;24.730;2023-03-14T05:30:31;91395.53;;;-2.30;100.00
59274;BME280;45044;41.572;24.730;2023-03-14T05:33:00;91392.81;;;-2.11;100.00
59274;BME280;45044;41.572;24.730;2023-03-14T05:35:27;91396.09;;;-1.96;100.00
59274;BME280;45044;41.572;24.730;2023-03-14T05:37:53;91386.59;;;-1.87;100.00
59274;BME280;45044;41.572;24.730;2023-03-14T05:40:20;91384.56;;;-1.76;100.00
59274;BME280;45044;41.572;24.730;2023-03-14T05:42:47;91379.63;;;-1.63;100.00
59274;BME280;45044;41.572;24.730;2023-03-14T05:45:14;91378.34;;;-1.43;100.00
59274;BME280;45044;41.572;24.730;2023-03-14T05:47:40;91377.19;;;-1.37;100.00
59274;BME280;45044;41.572;24.730;2023-03-14T05:50:09;91377.22;;;-1.28;100.00
59274;BME280;45044;41.572;24.730;2023-03-14T05:52:36;91371.31;;;-1.19;100.00
59274;BME280;45044;41.572;24.730;2023-03-14T05:55:03;91372.16;;;-1.01;100.00
59274;BME280;45044;41.572;24.730;2023-03-14T05:57:30;91371.00;;;-0.77;100.00
59274;BME280;45044;41.572;24.730;2023-03-14T05:59:57;91371.19;;;-0.56;100.00
59274;BME280;45044;41.572;24.730;2023-03-14T06:02:24;91378.66;;;-0.28;100.00
59274;BME280;45044;41.572;24.730;2023-03-14T06:04:51;91374.38;;;0.21;100.00
59274;BME280;45044;41.572;24.730;2023-03-14T06:07:18;91366.19;;;1.45;100.00
59274;BME280;45044;41.572;24.730;2023-03-14T06:09:45;91364.09;;;3.58;100.00
59274;BME280;45044;41.572;24.730;2023-03-14T06:12:11;91358.69;;;5.62;82.82
59274;BME280;45044;41.572;24.730;2023-03-14T06:14:38;91363.97;;;7.32;65.96
59274;BME280;45044;41.572;24.730;2023-03-14T06:17:05;91352.09;;;9.00;57.61
59274;BME280;45044;41.572;24.730;2023-03-14T06:19:32;91362.69;;;9.70;53.63
59274;BME280;45044;41.572;24.730;2023-03-14T06:21:59;91351.03;;;10.42;50.79
59274;BME280;45044;41.572;24.730;2023-03-14T06:24:25;91351.16;;;10.72;49.08
59274;BME280;45044;41.572;24.730;2023-03-14T06:26:53;91351.13;;;10.64;48.52
59274;BME280;45044;41.572;24.730;2023-03-14T06:29:20;91340.97;;;10.59;48.35
59274;BME280;45044;41.572;24.730;2023-03-14T06:31:47;91338.34;;;10.59;47.93
59274;BME280;45044;41.572;24.730;2023-03-14T06:34:13;91342.94;;;11.28;46.73
59274;BME280;45044;41.572;24.730;2023-03-14T06:36:40;91348.41;;;12.25;45.55
59274;BME280;45044;41.572;24.730;2023-03-14T06:39:07;91342.63;;;13.20;44.21
59274;BME280;45044;41.572;24.730;2023-03-14T06:41:34;91341.09;;;14.11;41.59
59274;BME280;45044;41.572;24.730;2023-03-14T06:44:00;91333.16;;;13.72;41.43
59274;BME280;45044;41.572;24.730;2023-03-14T06:46:27;91332.53;;;13.99;40.38
59274;BME280;45044;41.572;24.730;2023-03-14T06:48:54;91327.31;;;15.65;38.62
59274;BME280;45044;41.572;24.730;2023-03-14T06:51:21;91324.59;;;16.54;36.07
59274;BME280;45044;41.572;24.730;2023-03-14T06:53:48;91307.31;;;17.20;35.08
59274;BME280;45044;41.572;24.730;2023-03-14T06:56:15;91309.44;;;16.55;36.11
59274;BME280;45044;41.572;24.730;2023-03-14T06:58:44;91303.25;;;15.08;37.15
59274;BME280;45044;41.572;24.730;2023-03-14T07:01:26;91305.94;;;16.41;36.06
59274;BME280;45044;41.572;24.730;2023-03-14T07:03:54;91304.97;;;17.55;35.05
59274;BME280;45044;41.572;24.730;2023-03-14T07:06:21;91300.44;;;17.86;35.01
59274;BME280;45044;41.572;24.730;2023-03-14T07:08:49;91301.66;;;18.27;33.19
59274;BME280;45044;41.572;24.730;2023-03-14T07:11:16;91292.03;;;18.99;33.30
59274;BME280;45044;41.572;24.730;2023-03-14T07:13:43;91295.69;;;19.18;32.11
59274;BME280;45044;41.572;24.730;2023-03-14T07:16:09;91293.38;;;19.56;31.46
59274;BME280;45044;41.572;24.730;2023-03-14T07:18:36;91292.91;;;20.06;29.89
59274;BME280;45044;41.572;24.730;2023-03-14T07:21:05;91288.56;;;20.76;29.94
59274;BME280;45044;41.572;24.730;2023-03-14T07:23:33;91286.19;;;20.78;28.44
59274;BME280;45044;41.572;24.730;2023-03-14T07:25:59;91289.84;;;20.93;29.24
59274;BME280;45044;41.572;24.730;2023-03-14T07:28:26;91288.34;;;19.93;30.79
59274;BME280;45044;41.572;24.730;2023-03-14T07:30:54;91282.78;;;20.45;29.55
59274;BME280;45044;41.572;24.730;2023-03-14T07:33:21;91279.16;;;20.62;29.08
59274;BME280;45044;41.572;24.730;2023-03-14T07:35:48;91282.88;;;20.10;30.14
59274;BME280;45044;41.572;24.730;2023-03-14T07:38:15;91272.94;;;21.57;28.84
59274;BME280;45044;41.572;24.730;2023-03-14T07:40:42;91268.16;;;20.91;27.47
59274;BME280;45044;41.572;24.730;2023-03-14T07:43:09;91263.69;;;18.92;28.40
59274;BME280;45044;41.572;24.730;2023-03-14T07:45:36;91263.81;;;19.27;28.30
59274;BME280;45044;41.572;24.730;2023-03-14T07:48:08;91263.16;;;18.45;30.23
59274;BME280;45044;41.572;24.730;2023-03-14T07:50:35;91261.66;;;18.31;29.70
59274;BME280;45044;41.572;24.730;2023-03-14T07:53:01;91252.38;;;17.93;29.65
59274;BME280;45044;41.572;24.730;2023-03-14T07:55:28;91251.03;;;18.57;28.85
59274;BME280;45044;41.572;24.730;2023-03-14T07:57:55;91252.97;;;19.80;29.44
59274;BME280;45044;41.572;24.730;2023-03-14T08:00:22;91249.34;;;18.76;29.53
59274;BME280;45044;41.572;24.730;2023-03-14T08:02:48;91248.94;;;16.29;32.71
59274;BME280;45044;41.572;24.730;2023-03-14T08:05:15;91244.44;;;15.44;33.17
59274;BME280;45044;41.572;24.730;2023-03-14T08:07:42;91242.47;;;15.89;32.35
59274;BME280;45044;41.572;24.730;2023-03-14T08:10:09;91244.13;;;16.24;34.22
59274;BME280;45044;41.572;24.730;2023-03-14T08:12:36;91245.31;;;16.93;32.78
59274;BME280;45044;41.572;24.730;2023-03-14T08:15:04;91246.31;;;18.22;29.17
59274;BME280;45044;41.572;24.730;2023-03-14T08:17:32;91238.97;;;17.04;29.50
59274;BME280;45044;41.572;24.730;2023-03-14T08:19:58;91242.44;;;17.51;28.29
59274;BME280;45044;41.572;24.730;2023-03-14T08:22:25;91232.69;;;19.24;28.12
59274;BME280;45044;41.572;24.730;2023-03-14T08:24:52;91232.22;;;19.39;25.88
59274;BME280;45044;41.572;24.730;2023-03-14T08:27:18;91229.63;;;18.87;26.88
59274;BME280;45044;41.572;24.730;2023-03-14T08:29:45;91228.13;;;18.47;27.33
59274;BME280;45044;41.572;24.730;2023-03-14T08:32:12;91232.81;;;19.08;27.71
59274;BME280;45044;41.572;24.730;2023-03-14T08:34:39;91228.81;;;19.96;25.49
59274;BME280;45044;41.572;24.730;2023-03-14T08:37:05;91228.78;;;18.90;25.52
59274;BME280;45044;41.572;24.730;2023-03-14T08:39:49;91228.59;;;18.02;27.57
59274;BME280;45044;41.572;24.730;2023-03-14T08:42:15;91221.94;;;18.76;27.49
59274;BME280;45044;41.572;24.730;2023-03-14T08:44:42;91213.44;;;18.42;27.38
59274;BME280;45044;41.572;24.730;2023-03-14T08:47:09;91211.91;;;17.72;28.53
59274;BME280;45044;41.572;24.730;2023-03-14T08:49:36;91216.69;;;17.64;28.96
59274;BME280;45044;41.572;24.730;2023-03-14T08:52:04;91218.72;;;19.56;25.67
59274;BME280;45044;41.572;24.730;2023-03-14T08:54:31;91187.88;;;20.54;23.91
59274;BME280;45044;41.572;24.730;2023-03-14T08:56:58;91207.41;;;21.61;23.94
59274;BME280;45044;41.572;24.730;2023-03-14T08:59:24;91213.53;;;20.19;25.38
59274;BME280;45044;41.572;24.730;2023-03-14T09:01:51;91196.06;;;20.18;25.09
59274;BME280;45044;41.572;24.730;2023-03-14T09:04:18;91194.94;;;21.49;26.14
59274;BME280;45044;41.572;24.730;2023-03-14T09:06:45;91192.19;;;22.33;24.98
59274;BME280;45044;41.572;24.730;2023-03-14T09:09:12;91192.25;;;20.29;25.93
59274;BME280;45044;41.572;24.730;2023-03-14T09:11:40;91181.03;;;20.94;25.19
59274;BME280;45044;41.572;24.730;2023-03-14T09:14:06;91186.88;;;21.02;25.66
59274;BME280;45044;41.572;24.730;2023-03-14T09:16:33;91177.97;;;20.54;26.83
59274;BME280;45044;41.572;24.730;2023-03-14T09:19:00;91173.25;;;20.58;25.63
59274;BME280;45044;41.572;24.730;2023-03-14T09:21:27;91162.25;;;21.26;24.25
59274;BME280;45044;41.572;24.730;2023-03-14T09:23:54;91156.38;;;19.53;26.55
59274;BME280;45044;41.572;24.730;2023-03-14T09:26:20;91154.50;;;19.85;25.98
59274;BME280;45044;41.572;24.730;2023-03-14T09:28:47;91153.50;;;19.92;26.91
59274;BME280;45044;41.572;24.730;2023-03-14T09:31:14;91153.09;;;20.03;26.50
59274;BME280;45044;41.572;24.730;2023-03-14T09:33:41;91153.34;;;21.48;24.63
59274;BME280;45044;41.572;24.730;2023-03-14T09:36:08;91144.72;;;21.25;26.52
59274;BME280;45044;41.572;24.730;2023-03-14T09:38:35;91132.56;;;21.24;27.06
59274;BME280;45044;41.572;24.730;2023-03-14T09:41:06;91129.13;;;20.95;26.62
59274;BME280;45044;41.572;24.730;2023-03-14T09:43:39;91130.50;;;21.18;25.32
59274;BME280;45044;41.572;24.730;2023-03-14T09:46:09;91124.13;;;20.56;26.80
59274;BME280;45044;41.572;24.730;2023-03-14T09:48:37;91114.41;;;20.81;25.18
59274;BME280;45044;41.572;24.730;2023-03-14T09:51:11;91123.16;;;20.31;27.36
59274;BME280;45044;41.572;24.730;2023-03-14T09:53:47;91122.28;;;20.25;27.00
59274;BME280;45044;41.572;24.730;2023-03-14T09:58:51;91105.53;;;19.47;26.31
59274;BME280;45044;41.572;24.730;2023-03-14T10:01:24;91116.19;;;20.24;26.84
59274;BME280;45044;41.572;24.730;2023-03-14T10:03:55;91106.72;;;20.01;26.33
59274;BME280;45044;41.572;24.730;2023-03-14T10:06:26;91099.78;;;18.91;28.24
59274;BME280;45044;41.572;24.730;2023-03-14T10:08:54;91102.31;;;19.75;25.66
59274;BME280;45044;41.572;24.730;2023-03-14T10:11:21;91094.25;;;20.29;27.39
59274;BME280;45044;41.572;24.730;2023-03-14T10:16:36;91084.84;;;19.83;27.43
59274;BME280;45044;41.572;24.730;2023-03-14T10:19:06;91084.16;;;19.60;27.14
59274;BME280;45044;41.572;24.730;2023-03-14T10:21:41;91081.72;;;19.75;25.45
59274;BME280;45044;41.572;24.730;2023-03-14T10:24:30;91070.63;;;19.10;25.41
59274;BME280;45044;41.572;24.730;2023-03-14T10:26:59;91076.25;;;20.11;26.17
59274;BME280;45044;41.572;24.730;2023-03-14T10:29:30;91061.44;;;20.10;26.60
59274;BME280;45044;41.572;24.730;2023-03-14T10:32:03;91065.34;;;20.28;26.21
59274;BME280;45044;41.572;24.730;2023-03-14T10:39:46;91041.84;;;19.40;26.86
59274;BME280;45044;41.572;24.730;2023-03-14T10:42:26;91035.19;;;19.77;27.68
59274;BME280;45044;41.572;24.730;2023-03-14T10:45:04;91030.53;;;19.99;26.82
59274;BME280;45044;41.572;24.730;2023-03-14T10:47:34;91027.59;;;19.66;28.61
59274;BME280;45044;41.572;24.730;2023-03-14T10:50:29;91022.34;;;18.63;27.84
59274;BME280;45044;41.572;24.730;2023-03-14T10:52:57;91002.94;;;18.75;27.42
59274;BME280;45044;41.572;24.730;2023-03-14T10:55:40;91004.25;;;18.58;27.43
59274;BME280;45044;41.572;24.730;2023-03-14T10:58:28;91005.88;;;18.77;29.99
59274;BME280;45044;41.572;24.730;2023-03-14T11:03:31;90996.72;;;18.78;29.08
59274;BME280;45044;41.572;24.730;2023-03-14T11:06:25;90988.31;;;18.80;29.39
59274;BME280;45044;41.572;24.730;2023-03-14T11:11:41;90977.81;;;18.41;28.46
59274;BME280;45044;41.572;24.730;2023-03-14T11:14:20;90973.81;;;18.59;29.23
59274;BME280;45044;41.572;24.730;2023-03-14T11:19:58;90960.19;;;18.21;27.41
59274;BME280;45044;41.572;24.730;2023-03-14T11:22:37;90954.44;;;18.81;29.79
59274;BME280;45044;41.572;24.730;2023-03-14T11:28:29;90941.56;;;18.21;28.98
59274;BME280;45044;41.572;24.730;2023-03-14T11:31:16;90949.19;;;18.32;30.06
59274;BME280;45044;41.572;24.730;2023-03-14T11:33:51;90929.53;;;18.74;28.51
59274;BME280;45044;41.572;24.730;2023-03-14T11:39:00;90915.72;;;17.47;30.20
59274;BME280;45044;41.572;24.730;2023-03-14T11:41:32;90919.13;;;17.34;29.72
59274;BME280;45044;41.572;24.730;2023-03-14T11:44:08;90910.53;;;17.56;29.01
59274;BME280;45044;41.572;24.730;2023-03-14T11:46:43;90905.44;;;17.36;30.60
59274;BME280;45044;41.572;24.730;2023-03-14T11:51:56;90900.06;;;17.88;31.28
59274;BME280;45044;41.572;24.730;2023-03-14T11:54:43;90891.03;;;18.21;30.25
59274;BME280;45044;41.572;24.730;2023-03-14T11:57:18;90897.97;;;17.70;29.88
59274;BME280;45044;41.572;24.730;2023-03-14T11:59:53;90891.88;;;17.82;32.19
59274;BME280;45044;41.572;24.730;2023-03-14T12:08:15;90874.94;;;17.15;32.36
59274;BME280;45044;41.572;24.730;2023-03-14T12:10:52;90868.97;;;17.63;32.55
59274;BME280;45044;41.572;24.730;2023-03-14T12:13:21;90867.28;;;17.43;31.90
59274;BME280;45044;41.572;24.730;2023-03-14T12:15:50;90861.47;;;17.22;32.23
59274;BME280;45044;41.572;24.730;2023-03-14T12:18:33;90838.19;;;17.39;32.24
59274;BME280;45044;41.572;24.730;2023-03-14T12:21:03;90855.06;;;17.45;31.71
59274;BME280;45044;41.572;24.730;2023-03-14T12:28:43;90845.41;;;16.86;32.87
59274;BME280;45044;41.572;24.730;2023-03-14T12:34:24;90834.97;;;16.53;32.91
59274;BME280;45044;41.572;24.730;2023-03-14T12:37:14;90834.88;;;17.09;35.17
59274;BME280;45044;41.572;24.730;2023-03-14T12:43:02;90825.97;;;16.76;32.34
59274;BME280;45044;41.572;24.730;2023-03-14T12:45:32;90828.78;;;16.56;34.57
59274;BME280;45044;41.572;24.730;2023-03-14T12:48:26;90823.97;;;16.25;35.62
59274;BME280;45044;41.572;24.730;2023-03-14T12:51:02;90817.41;;;16.30;33.55
59274;BME280;45044;41.572;24.730;2023-03-14T12:53:39;90820.06;;;16.00;34.54
59274;BME280;45044;41.572;24.730;2023-03-14T12:56:21;90809.47;;;15.83;32.94
59274;BME280;45044;41.572;24.730;2023-03-14T12:59:05;90806.50;;;15.51;35.65
59274;BME280;45044;41.572;24.730;2023-03-14T13:01:36;90810.97;;;15.38;34.14
59274;BME280;45044;41.572;24.730;2023-03-14T13:04:07;90811.38;;;15.53;34.56
59274;BME280;45044;41.572;24.730;2023-03-14T13:06:55;90808.06;;;15.49;34.68
59274;BME280;45044;41.572;24.730;2023-03-14T13:12:14;90795.63;;;15.62;36.03
59274;BME280;45044;41.572;24.730;2023-03-14T13:14:46;90795.81;;;15.55;35.30
59274;BME280;45044;41.572;24.730;2023-03-14T13:17:16;90792.81;;;15.69;36.53
59274;BME280;45044;41.572;24.730;2023-03-14T13:20:11;90783.88;;;14.63;35.03
59274;BME280;45044;41.572;24.730;2023-03-14T13:22:46;90786.00;;;15.22;36.02
59274;BME280;45044;41.572;24.730;2023-03-14T13:25:13;90783.03;;;15.20;34.50
59274;BME280;45044;41.572;24.730;2023-03-14T13:27:41;90777.88;;;14.79;34.20
59274;BME280;45044;41.572;24.730;2023-03-14T13:30:21;90793.69;;;15.16;37.38
59274;BME280;45044;41.572;24.730;2023-03-14T13:32:48;90780.38;;;15.37;37.08
59274;BME280;45044;41.572;24.730;2023-03-14T13:35:25;90784.75;;;15.43;35.32
59274;BME280;45044;41.572;24.730;2023-03-14T13:37:55;90784.19;;;15.36;35.38
59274;BME280;45044;41.572;24.730;2023-03-14T13:40:37;90782.44;;;14.79;33.83
59274;BME280;45044;41.572;24.730;2023-03-14T13:45:55;90771.56;;;15.10;36.27
59274;BME280;45044;41.572;24.730;2023-03-14T13:48:27;90762.94;;;15.06;36.52
59274;BME280;45044;41.572;24.730;2023-03-14T13:50:58;90760.63;;;15.08;34.85
59274;BME280;45044;41.572;24.730;2023-03-14T13:53:26;90757.63;;;15.39;36.25
59274;BME280;45044;41.572;24.730;2023-03-14T13:55:53;90750.16;;;15.34;35.61